Welcome to Northern Hawkes Bay. New Zealand.
PWS Header
      nz Flag



Hit Counter


W3C Valid W3C Valid logo


    Wairoa

Select any of the Stations below to visit their websites.










Historic Data from Weather Underground
Select the location of interest below. Wairoa is the default. Please have patience, this Data is slow to load in.
Northern Hawkes Bay Historical Data
Daily Summary for November 15, 2017 Units:  Metric    English   Both
« Previous Day
Next Day »
Daily Weekly Monthly Yearly Custom
  High: Low: Average:
Temperature: 20.0 °C 9.8 °C 15.2 °C
Dew Point: 12.8 °C 9.1 °C 10.6 °C
Humidity: 99% 53% 76%
Wind Speed: 13.4km/h 0.0km/h 4.3km/h
Wind Gust: 27.0km/h - -
Wind- - South
Pressure: 1027.0 hPa 1024.3 hPa -
Precipitation: 0.0 mm    
Historical Graphs
 
 
Tabular Data for November 15, 2017
Time Temperature Dew Point Pressure Wind Wind Speed Wind Gust Humidity Rainfall Rate (Hourly) solar
00:03 12.2 °C 10.6 °C 1026.6 hPa Calm     90% 0.0 mm 0 W/m2
00:08 12.2 °C 10.6 °C 1026.3 hPa Calm     90% 0.0 mm 0 W/m2
00:13 12.2 °C 10.6 °C 1026.3 hPa Calm     90% 0.0 mm 0 W/m2
00:18 12.2 °C 10.6 °C 1026.3 hPa Calm     90% 0.0 mm 0 W/m2
00:23 12.2 °C 10.6 °C 1026.3 hPa Calm     90% 0.0 mm 0 W/m2
00:28 12.2 °C 10.6 °C 1026.3 hPa Calm     90% 0.0 mm 0 W/m2
00:34 12.2 °C 10.6 °C 1026.3 hPa Calm     90% 0.0 mm 0 W/m2
00:39 12.2 °C 10.6 °C 1026.3 hPa Calm     90% 0.0 mm 0 W/m2
00:44 12.3 °C 10.7 °C 1026.0 hPa Calm     90% 0.0 mm 0 W/m2
00:49 12.3 °C 10.7 °C 1026.3 hPa Calm   3.5 km/h 90% 0.0 mm 0 W/m2
00:54 12.3 °C 10.7 °C 1026.0 hPa Calm   3.5 km/h 90% 0.0 mm 0 W/m2
00:59 12.3 °C 10.7 °C 1026.3 hPa NNW 1.1 km/h 3.5 km/h 90% 0.0 mm 0 W/m2
01:04 12.3 °C 10.7 °C 1026.3 hPa Calm   3.5 km/h 90% 0.0 mm 0 W/m2
01:09 12.3 °C 10.7 °C 1026.3 hPa North 1.1 km/h 5.0 km/h 90% 0.0 mm 0 W/m2
01:14 12.3 °C 10.7 °C 1026.3 hPa NNW 1.1 km/h 5.0 km/h 90% 0.0 mm 0 W/m2
01:19 12.3 °C 10.7 °C 1026.0 hPa NNW 1.1 km/h 5.0 km/h 90% 0.0 mm 0 W/m2
01:24 12.2 °C 10.6 °C 1026.0 hPa NNW 1.1 km/h 5.0 km/h 90% 0.0 mm 0 W/m2
01:29 12.1 °C 10.5 °C 1026.0 hPa Calm   5.0 km/h 90% 0.0 mm 0 W/m2
01:34 12.1 °C 10.5 °C 1026.0 hPa NNW 1.1 km/h 5.0 km/h 90% 0.0 mm 0 W/m2
01:39 12.0 °C 10.4 °C 1026.0 hPa Calm   3.5 km/h 90% 0.0 mm 0 W/m2
01:44 12.0 °C 10.4 °C 1026.0 hPa North 1.1 km/h 3.5 km/h 90% 0.0 mm 0 W/m2
01:49 12.0 °C 10.4 °C 1026.0 hPa North 1.1 km/h 3.5 km/h 90% 0.0 mm 0 W/m2
01:54 12.0 °C 10.4 °C 1026.0 hPa North 1.1 km/h 5.0 km/h 90% 0.0 mm 0 W/m2
01:59 11.9 °C 10.5 °C 1025.6 hPa Calm   5.0 km/h 91% 0.0 mm 0 W/m2
02:17 11.7 °C 10.4 °C 1025.6 hPa North 1.1 km/h 5.0 km/h 92% 0.0 mm 0 W/m2
02:22 11.6 °C 10.3 °C 1025.6 hPa Calm   5.0 km/h 92% 0.0 mm 0 W/m2
02:27 11.5 °C 10.2 °C 1025.6 hPa Calm   2.6 km/h 92% 0.0 mm 0 W/m2
02:32 11.4 °C 10.2 °C 1025.6 hPa Calm   2.6 km/h 92% 0.0 mm 0 W/m2
02:37 11.3 °C 10.2 °C 1025.6 hPa Calm   2.6 km/h 93% 0.0 mm 0 W/m2
02:42 11.1 °C 10.0 °C 1025.6 hPa Calm   2.6 km/h 93% 0.0 mm 0 W/m2
02:47 11.0 °C 9.9 °C 1025.6 hPa Calm   2.6 km/h 93% 0.0 mm 0 W/m2
02:52 10.9 °C 10.0 °C 1025.6 hPa Calm     94% 0.0 mm 0 W/m2
02:57 10.7 °C 9.9 °C 1025.6 hPa Calm     95% 0.0 mm 0 W/m2
03:02 10.6 °C 9.8 °C 1025.6 hPa Calm     95% 0.0 mm 0 W/m2
03:07 10.5 °C 9.7 °C 1025.3 hPa Calm     95% 0.0 mm 0 W/m2
03:12 10.4 °C 9.6 °C 1025.6 hPa NW 1.1 km/h 2.6 km/h 95% 0.0 mm 0 W/m2
03:17 10.3 °C 9.7 °C 1025.6 hPa Calm   2.6 km/h 96% 0.0 mm 0 W/m2
03:22 10.3 °C 9.7 °C 1025.6 hPa Calm   2.6 km/h 96% 0.0 mm 0 W/m2
03:27 10.2 °C 9.7 °C 1025.3 hPa NNW 1.1 km/h 2.6 km/h 97% 0.0 mm 0 W/m2
03:32 10.2 °C 9.7 °C 1025.6 hPa Calm   2.6 km/h 97% 0.0 mm 0 W/m2
03:37 10.1 °C 9.7 °C 1025.6 hPa Calm   2.6 km/h 97% 0.0 mm 0 W/m2
03:42 10.2 °C 9.9 °C 1025.6 hPa NW 1.1 km/h 2.6 km/h 98% 0.0 mm 0 W/m2
03:47 10.2 °C 9.9 °C 1025.6 hPa Calm   2.6 km/h 98% 0.0 mm 0 W/m2
03:52 10.2 °C 9.9 °C 1025.6 hPa Calm   2.6 km/h 98% 0.0 mm 0 W/m2
03:57 10.4 °C 10.3 °C 1025.6 hPa Calm     99% 0.0 mm 0 W/m2
04:02 10.2 °C 10.1 °C 1025.6 hPa Calm     99% 0.0 mm 0 W/m2
04:07 10.3 °C 10.2 °C 1025.6 hPa Calm   2.6 km/h 99% 0.0 mm 0 W/m2
04:12 10.3 °C 10.2 °C 1025.3 hPa NNW 1.1 km/h 3.5 km/h 99% 0.0 mm 0 W/m2
04:17 10.2 °C 10.1 °C 1025.3 hPa Calm   3.5 km/h 99% 0.0 mm 0 W/m2
04:22 10.4 °C 10.3 °C 1025.3 hPa Calm   3.5 km/h 99% 0.0 mm 0 W/m2
04:27 10.4 °C 10.3 °C 1025.6 hPa NW 2.6 km/h 5.0 km/h 99% 0.0 mm 0 W/m2
04:32 10.4 °C 10.3 °C 1025.3 hPa NW 2.6 km/h 5.0 km/h 99% 0.0 mm 0 W/m2
04:37 10.2 °C 10.1 °C 1025.3 hPa NNW 1.1 km/h 6.1 km/h 99% 0.0 mm 0 W/m2
04:42 10.4 °C 10.3 °C 1025.6 hPa NNW 2.6 km/h 6.1 km/h 99% 0.0 mm 0 W/m2
04:47 10.4 °C 10.3 °C 1025.6 hPa NW 1.1 km/h 5.0 km/h 99% 0.0 mm 0 W/m2
05:03 10.4 °C 10.3 °C 1025.6 hPa NNW 1.1 km/h 6.1 km/h 99% 0.0 mm 0 W/m2
05:08 10.3 °C 10.2 °C 1025.6 hPa NNW 1.1 km/h 6.1 km/h 99% 0.0 mm 0 W/m2
05:13 10.3 °C 10.2 °C 1025.6 hPa NNW 1.1 km/h 6.1 km/h 99% 0.0 mm 0 W/m2
05:18 10.2 °C 10.1 °C 1025.6 hPa Calm   5.0 km/h 99% 0.0 mm 0 W/m2
05:23 10.2 °C 10.1 °C 1025.6 hPa NNW 2.6 km/h 5.0 km/h 99% 0.0 mm 0 W/m2
05:28 10.2 °C 10.1 °C 1025.6 hPa North 1.1 km/h 5.0 km/h 99% 0.0 mm 0 W/m2
05:33 10.0 °C 9.8 °C 1025.6 hPa NNW 2.6 km/h 3.5 km/h 99% 0.0 mm 0 W/m2
05:38 10.1 °C 9.9 °C 1025.6 hPa NNW 1.1 km/h 3.5 km/h 99% 0.0 mm 0 W/m2
05:43 10.1 °C 9.9 °C 1025.6 hPa NNW 1.1 km/h 5.0 km/h 99% 0.0 mm 0 W/m2
05:48 10.1 °C 9.9 °C 1025.6 hPa NW 2.6 km/h 6.1 km/h 99% 0.0 mm 0 W/m2
05:53 9.8 °C 9.7 °C 1026.0 hPa NNW 2.6 km/h 6.1 km/h 99% 0.0 mm 2 W/m2
05:58 10.0 °C 9.8 °C 1025.6 hPa NW 3.5 km/h 7.2 km/h 99% 0.0 mm 4 W/m2
06:03 10.0 °C 9.8 °C 1025.6 hPa NW 3.5 km/h 8.7 km/h 99% 0.0 mm 8 W/m2
06:08 10.1 °C 9.9 °C 1025.6 hPa NNW 3.5 km/h 8.7 km/h 99% 0.0 mm 22 W/m2
06:13 10.0 °C 9.8 °C 1026.0 hPa NW 1.1 km/h 7.2 km/h 99% 0.0 mm 30 W/m2
06:18 10.3 °C 10.2 °C 1026.0 hPa NW 2.6 km/h 7.2 km/h 99% 0.0 mm 30 W/m2
06:23 10.4 °C 10.3 °C 1026.0 hPa NW 3.5 km/h 7.2 km/h 99% 0.0 mm 48 W/m2
06:28 10.5 °C 10.3 °C 1026.0 hPa NW 3.5 km/h 7.2 km/h 99% 0.0 mm 56 W/m2
06:33 10.5 °C 10.3 °C 1026.0 hPa NNW 2.6 km/h 7.2 km/h 99% 0.0 mm 68 W/m2
06:38 10.8 °C 10.7 °C 1026.0 hPa NNW 2.6 km/h 7.2 km/h 99% 0.0 mm 43 W/m2
06:43 10.8 °C 10.5 °C 1026.0 hPa NW 5.0 km/h 8.7 km/h 98% 0.0 mm 47 W/m2
06:48 10.8 °C 10.3 °C 1026.0 hPa NW 3.5 km/h 8.7 km/h 97% 0.0 mm 96 W/m2
06:53 11.5 °C 11.1 °C 1026.0 hPa NNW 3.5 km/h 7.2 km/h 97% 0.0 mm 99 W/m2
06:58 11.5 °C 10.7 °C 1026.0 hPa NNW 2.6 km/h 7.2 km/h 95% 0.0 mm 53 W/m2
07:03 11.5 °C 10.6 °C 1026.0 hPa NNW 1.1 km/h 6.1 km/h 94% 0.0 mm 50 W/m2
07:08 11.5 °C 10.4 °C 1026.0 hPa NNW 5.0 km/h 8.7 km/h 93% 0.0 mm 75 W/m2
07:13 11.8 °C 10.7 °C 1026.0 hPa NNW 3.5 km/h 11.1 km/h 93% 0.0 mm 123 W/m2
07:18 12.1 °C 10.7 °C 1026.0 hPa NW 7.2 km/h 11.1 km/h 91% 0.0 mm 130 W/m2
07:23 12.4 °C 10.8 °C 1026.3 hPa NW 7.2 km/h 11.1 km/h 90% 0.0 mm 147 W/m2
07:28 12.9 °C 11.1 °C 1026.3 hPa NNW 6.1 km/h 11.1 km/h 89% 0.0 mm 182 W/m2
07:33 13.0 °C 10.9 °C 1026.3 hPa NW 6.1 km/h 11.1 km/h 87% 0.0 mm 193 W/m2
07:38 13.7 °C 11.4 °C 1026.3 hPa North 8.7 km/h 11.1 km/h 86% 0.0 mm 250 W/m2
07:43 13.9 °C 11.2 °C 1026.3 hPa North 3.5 km/h 11.1 km/h 84% 0.0 mm 249 W/m2
07:48 14.2 °C 11.0 °C 1026.3 hPa NNW 2.6 km/h 11.1 km/h 81% 0.0 mm 209 W/m2
07:53 13.9 °C 10.7 °C 1026.3 hPa Calm   9.7 km/h 81% 0.0 mm 249 W/m2
07:58 14.7 °C 11.5 °C 1026.6 hPa North 2.6 km/h 7.2 km/h 81% 0.0 mm 265 W/m2
08:03 15.4 °C 11.6 °C 1026.3 hPa North 1.1 km/h 7.2 km/h 78% 0.0 mm 287 W/m2
08:08 15.1 °C 10.7 °C 1026.6 hPa NW 3.5 km/h 7.2 km/h 75% 0.0 mm 269 W/m2
08:13 15.2 °C 11.0 °C 1026.6 hPa NW 2.6 km/h 7.2 km/h 76% 0.0 mm 271 W/m2
08:18 15.1 °C 10.9 °C 1026.6 hPa Calm   7.2 km/h 76% 0.0 mm 219 W/m2
08:23 15.3 °C 10.9 °C 1026.6 hPa NNW 5.0 km/h 8.7 km/h 75% 0.0 mm 314 W/m2
08:28 16.2 °C 11.8 °C 1026.6 hPa NW 1.1 km/h 8.7 km/h 75% 0.0 mm 152 W/m2
08:33 16.4 °C 11.3 °C 1026.6 hPa NNW 3.5 km/h 7.2 km/h 72% 0.0 mm 249 W/m2
08:38 16.5 °C 11.7 °C 1026.6 hPa NNW 2.6 km/h 7.2 km/h 73% 0.0 mm 291 W/m2
08:43 16.3 °C 11.3 °C 1027.0 hPa NNW 2.6 km/h 7.2 km/h 72% 0.0 mm 386 W/m2
08:48 16.8 °C 11.7 °C 1027.0 hPa NNW 1.1 km/h 7.2 km/h 72% 0.0 mm 453 W/m2
08:53 17.4 °C 11.4 °C 1027.0 hPa NNW 2.6 km/h 7.2 km/h 68% 0.0 mm 487 W/m2
08:58 17.3 °C 11.1 °C 1027.0 hPa NNW 1.1 km/h 6.1 km/h 67% 0.0 mm 212 W/m2
09:03 17.8 °C 11.6 °C 1027.0 hPa Calm   6.1 km/h 67% 0.0 mm 199 W/m2
09:08 17.8 °C 11.4 °C 1027.0 hPa Calm   6.1 km/h 66% 0.0 mm 286 W/m2
09:13 17.4 °C 10.8 °C 1026.6 hPa ESE 3.5 km/h 5.0 km/h 65% 0.0 mm 193 W/m2
09:18 16.3 °C 10.6 °C 1026.6 hPa Calm   5.0 km/h 69% 0.0 mm 247 W/m2
09:23 16.5 °C 11.2 °C 1027.0 hPa SE 2.6 km/h 5.0 km/h 71% 0.0 mm 273 W/m2
09:28 16.7 °C 11.4 °C 1027.0 hPa ESE 1.1 km/h 5.0 km/h 71% 0.0 mm 324 W/m2
09:33 17.3 °C 11.3 °C 1027.0 hPa ESE 3.5 km/h 5.0 km/h 68% 0.0 mm 303 W/m2
09:38 16.7 °C 11.6 °C 1027.0 hPa SSW 5.0 km/h 9.7 km/h 72% 0.0 mm 272 W/m2
09:43 16.2 °C 11.6 °C 1026.6 hPa SSW 8.7 km/h 12.2 km/h 74% 0.0 mm 239 W/m2
09:48 15.9 °C 11.7 °C 1027.0 hPa South 3.5 km/h 12.2 km/h 76% 0.0 mm 251 W/m2
09:53 16.2 °C 11.8 °C 1026.6 hPa SSW 2.6 km/h 11.1 km/h 75% 0.0 mm 280 W/m2
09:58 16.3 °C 12.1 °C 1026.6 hPa South 2.6 km/h 11.1 km/h 76% 0.0 mm 469 W/m2
10:03 16.5 °C 11.8 °C 1026.6 hPa South 3.5 km/h 11.1 km/h 74% 0.0 mm 368 W/m2
10:09 16.8 °C 12.2 °C 1026.6 hPa SSW 7.2 km/h 13.4 km/h 74% 0.0 mm 539 W/m2
10:14 16.9 °C 12.1 °C 1027.0 hPa SW 8.7 km/h 14.8 km/h 73% 0.0 mm 624 W/m2
10:19 16.9 °C 12.1 °C 1026.6 hPa SW 6.1 km/h 14.8 km/h 73% 0.0 mm 699 W/m2
10:24 16.9 °C 12.2 °C 1027.0 hPa SW 8.7 km/h 13.4 km/h 74% 0.0 mm 520 W/m2
10:29 16.2 °C 11.6 °C 1027.0 hPa SSW 6.1 km/h 13.4 km/h 74% 0.0 mm 585 W/m2
10:34 16.6 °C 12.2 °C 1027.0 hPa SSW 8.7 km/h 13.4 km/h 75% 0.0 mm 735 W/m2
10:39 16.8 °C 12.3 °C 1027.0 hPa South 8.7 km/h 14.8 km/h 75% 0.0 mm 475 W/m2
10:44 16.4 °C 12.2 °C 1027.0 hPa SSW 8.7 km/h 15.8 km/h 76% 0.0 mm 438 W/m2
10:49 16.4 °C 12.6 °C 1027.0 hPa SSW 12.2 km/h 15.8 km/h 78% 0.0 mm 906 W/m2
10:54 16.8 °C 12.8 °C 1027.0 hPa SSW 11.1 km/h 15.8 km/h 77% 0.0 mm 634 W/m2
10:59 16.4 °C 11.9 °C 1027.0 hPa South 7.2 km/h 15.8 km/h 75% 0.0 mm 492 W/m2
11:04 17.0 °C 12.7 °C 1027.0 hPa SSE 11.1 km/h 17.2 km/h 76% 0.0 mm 644 W/m2
11:09 16.3 °C 12.1 °C 1027.0 hPa SSE 6.1 km/h 17.2 km/h 76% 0.0 mm 479 W/m2
11:14 17.1 °C 12.7 °C 1027.0 hPa South 7.2 km/h 15.8 km/h 75% 0.0 mm 882 W/m2
11:19 17.2 °C 12.3 °C 1027.0 hPa South 2.6 km/h 18.3 km/h 73% 0.0 mm 442 W/m2
11:24 17.3 °C 12.0 °C 1027.0 hPa SSE 5.0 km/h 18.3 km/h 71% 0.0 mm 872 W/m2
11:29 17.6 °C 12.7 °C 1027.0 hPa SSE 5.0 km/h 15.8 km/h 73% 0.0 mm 805 W/m2
11:34 17.3 °C 12.4 °C 1027.0 hPa South 9.7 km/h 15.8 km/h 73% 0.0 mm 800 W/m2
11:39 17.3 °C 12.0 °C 1026.6 hPa SSE 3.5 km/h 15.8 km/h 71% 0.0 mm 805 W/m2
11:44 17.7 °C 11.5 °C 1027.0 hPa SSE 12.2 km/h 15.8 km/h 67% 0.0 mm 809 W/m2
11:49 17.4 °C 11.2 °C 1026.6 hPa SSE 6.1 km/h 15.8 km/h 67% 0.0 mm 809 W/m2
11:54 17.6 °C 11.4 °C 1026.6 hPa SSE 2.6 km/h 15.8 km/h 67% 0.0 mm 809 W/m2
11:59 17.9 °C 10.8 °C 1026.6 hPa SSE 7.2 km/h 15.8 km/h 63% 0.0 mm 816 W/m2
12:04 18.2 °C 11.5 °C 1026.6 hPa SSE 12.2 km/h 15.8 km/h 65% 0.0 mm 816 W/m2
12:09 17.9 °C 10.8 °C 1026.6 hPa SE 6.1 km/h 15.8 km/h 63% 0.0 mm 811 W/m2
12:14 17.9 °C 11.2 °C 1026.6 hPa Calm   15.8 km/h 65% 0.0 mm 809 W/m2
12:19 18.0 °C 11.6 °C 1026.3 hPa SE 6.1 km/h 17.2 km/h 66% 0.0 mm 809 W/m2
12:24 17.9 °C 11.4 °C 1026.6 hPa SE 7.2 km/h 17.2 km/h 66% 0.0 mm 805 W/m2
12:29 17.9 °C 11.4 °C 1026.3 hPa SE 11.1 km/h 17.2 km/h 66% 0.0 mm 805 W/m2
12:34 18.1 °C 11.9 °C 1026.3 hPa SE 11.1 km/h 17.2 km/h 67% 0.0 mm 804 W/m2
12:39 18.0 °C 11.8 °C 1026.3 hPa SE 5.0 km/h 14.8 km/h 67% 0.0 mm 800 W/m2
12:44 17.9 °C 11.9 °C 1026.3 hPa SE 8.7 km/h 15.8 km/h 68% 0.0 mm 796 W/m2
12:49 17.7 °C 11.5 °C 1026.3 hPa ESE 8.7 km/h 17.2 km/h 67% 0.0 mm 792 W/m2
12:54 18.0 °C 11.6 °C 1026.0 hPa ESE 6.1 km/h 17.2 km/h 66% 0.0 mm 792 W/m2
12:59 18.2 °C 11.5 °C 1026.0 hPa ESE 7.2 km/h 18.3 km/h 65% 0.0 mm 787 W/m2
13:04 18.0 °C 11.8 °C 1026.0 hPa ESE 7.2 km/h 18.3 km/h 67% 0.0 mm 781 W/m2
13:09 17.7 °C 11.1 °C 1026.0 hPa ESE 7.2 km/h 18.3 km/h 65% 0.0 mm 776 W/m2
13:14 18.1 °C 11.7 °C 1026.0 hPa SE 6.1 km/h 17.2 km/h 66% 0.0 mm 774 W/m2
13:19 18.4 °C 11.9 °C 1026.0 hPa SE 7.2 km/h 18.3 km/h 66% 0.0 mm 774 W/m2
13:24 18.4 °C 12.2 °C 1026.0 hPa SE 9.7 km/h 18.3 km/h 67% 0.0 mm 765 W/m2
13:29 18.7 °C 12.2 °C 1026.0 hPa SSE 6.1 km/h 19.5 km/h 66% 0.0 mm 760 W/m2
13:34 18.2 °C 12.0 °C 1026.0 hPa SSE 6.1 km/h 19.5 km/h 67% 0.0 mm 754 W/m2
13:39 18.1 °C 12.1 °C 1026.0 hPa SE 6.1 km/h 19.5 km/h 68% 0.0 mm 747 W/m2
13:44 18.4 °C 12.4 °C 1026.0 hPa SE 13.4 km/h 19.5 km/h 68% 0.0 mm 743 W/m2
13:49 18.4 °C 12.2 °C 1026.0 hPa SE 7.2 km/h 18.3 km/h 67% 0.0 mm 733 W/m2
13:54 17.9 °C 11.7 °C 1026.0 hPa SE 11.1 km/h 27.0 km/h 67% 0.0 mm 725 W/m2
13:59 18.2 °C 12.0 °C 1025.6 hPa SE 7.2 km/h 27.0 km/h 67% 0.0 mm 718 W/m2
14:04 18.2 °C 11.8 °C 1025.6 hPa SE 9.7 km/h 19.5 km/h 66% 0.0 mm 709 W/m2
14:09 18.3 °C 11.8 °C 1025.3 hPa ESE 5.0 km/h 19.5 km/h 66% 0.0 mm 699 W/m2
14:14 17.9 °C 11.4 °C 1025.3 hPa ESE 7.2 km/h 24.5 km/h 66% 0.0 mm 689 W/m2
14:19 18.1 °C 11.9 °C 1025.3 hPa SE 9.7 km/h 24.5 km/h 67% 0.0 mm 684 W/m2
14:24 18.1 °C 11.7 °C 1025.3 hPa SE 9.7 km/h 21.9 km/h 66% 0.0 mm 673 W/m2
14:29 18.6 °C 11.9 °C 1025.3 hPa SE 7.2 km/h 21.9 km/h 65% 0.0 mm 668 W/m2
14:34 18.3 °C 11.4 °C 1024.9 hPa SSE 9.7 km/h 21.9 km/h 64% 0.0 mm 660 W/m2
14:39 18.6 °C 11.7 °C 1024.9 hPa SE 5.0 km/h 21.9 km/h 64% 0.0 mm 651 W/m2
14:44 18.8 °C 11.4 °C 1024.9 hPa SE 9.7 km/h 21.9 km/h 62% 0.0 mm 645 W/m2
14:49 19.2 °C 11.5 °C 1024.9 hPa ESE 8.7 km/h 17.2 km/h 61% 0.0 mm 589 W/m2
14:54 19.2 °C 11.3 °C 1024.9 hPa ESE 9.7 km/h 17.2 km/h 60% 0.0 mm 630 W/m2
14:56 19.1 °C 10.9 °C 1024.9 hPa ESE 11.1 km/h 17.2 km/h 59% 0.0 mm 591 W/m2
15:01 19.5 °C 10.8 °C 1024.9 hPa ESE 9.7 km/h 17.2 km/h 57% 0.0 mm 488 W/m2
15:06 19.3 °C 10.3 °C 1024.6 hPa SE 5.0 km/h 15.8 km/h 56% 0.0 mm 606 W/m2
15:11 19.6 °C 10.3 °C 1024.9 hPa SE 6.1 km/h 19.5 km/h 55% 0.0 mm 600 W/m2
15:16 19.7 °C 10.7 °C 1024.6 hPa ESE 13.4 km/h 19.5 km/h 56% 0.0 mm 592 W/m2
15:21 20.0 °C 10.7 °C 1024.6 hPa SE 8.7 km/h 19.5 km/h 55% 0.0 mm 424 W/m2
15:26 19.7 °C 10.9 °C 1024.6 hPa SE 7.2 km/h 18.3 km/h 57% 0.0 mm 387 W/m2
15:31 19.6 °C 10.6 °C 1024.6 hPa ESE 8.7 km/h 17.2 km/h 56% 0.0 mm 428 W/m2
15:36 19.5 °C 10.8 °C 1024.6 hPa ESE 11.1 km/h 18.3 km/h 57% 0.0 mm 346 W/m2
15:41 19.4 °C 10.4 °C 1024.6 hPa SE 11.1 km/h 23.3 km/h 56% 0.0 mm 388 W/m2
15:46 19.4 °C 10.4 °C 1024.6 hPa SSE 7.2 km/h 23.3 km/h 56% 0.0 mm 495 W/m2
15:51 19.3 °C 10.6 °C 1024.6 hPa SSE 9.7 km/h 20.9 km/h 57% 0.0 mm 483 W/m2
15:56 19.5 °C 11.1 °C 1024.6 hPa SSE 6.1 km/h 20.9 km/h 58% 0.0 mm 511 W/m2
16:01 19.2 °C 10.5 °C 1024.6 hPa SSE 7.2 km/h 24.5 km/h 57% 0.0 mm 495 W/m2
16:20 19.6 °C 11.1 °C 1024.3 hPa SE 9.7 km/h 20.9 km/h 58% 0.0 mm 461 W/m2
16:25 19.3 °C 10.3 °C 1024.3 hPa SE 5.0 km/h 19.5 km/h 56% 0.0 mm 453 W/m2
16:30 19.3 °C 10.1 °C 1024.3 hPa SE 7.2 km/h 24.5 km/h 55% 0.0 mm 437 W/m2
16:35 19.4 °C 10.4 °C 1024.3 hPa SE 8.7 km/h 24.5 km/h 56% 0.0 mm 426 W/m2
16:38 19.7 °C 10.7 °C 1024.3 hPa SE 8.7 km/h 19.5 km/h 56% 0.0 mm 420 W/m2
16:39 19.8 °C 10.8 °C 1024.3 hPa SE 9.7 km/h 19.5 km/h 56% 0.0 mm 418 W/m2
16:44 19.7 °C 10.4 °C 1024.3 hPa SE 13.4 km/h 23.3 km/h 55% 0.0 mm 405 W/m2
16:47 19.3 °C 9.8 °C 1024.3 hPa SSE 7.2 km/h 23.3 km/h 54% 0.0 mm 396 W/m2
16:52 19.5 °C 9.9 °C 1024.3 hPa SE 8.7 km/h 23.3 km/h 54% 0.0 mm 386 W/m2
16:57 19.7 °C 10.2 °C 1024.3 hPa ESE 13.4 km/h 21.9 km/h 54% 0.0 mm 375 W/m2
17:02 19.2 °C 9.4 °C 1024.3 hPa ESE 7.2 km/h 21.9 km/h 53% 0.0 mm 359 W/m2
17:07 19.4 °C 9.6 °C 1024.3 hPa SE 6.1 km/h 21.9 km/h 53% 0.0 mm 345 W/m2
17:12 19.3 °C 9.5 °C 1024.3 hPa SE 12.2 km/h 20.9 km/h 53% 0.0 mm 335 W/m2
17:17 19.3 °C 9.8 °C 1024.3 hPa ESE 9.7 km/h 18.3 km/h 54% 0.0 mm 323 W/m2
17:22 19.3 °C 10.1 °C 1024.3 hPa SE 9.7 km/h 18.3 km/h 55% 0.0 mm 312 W/m2
17:27 19.4 °C 10.1 °C 1024.3 hPa SE 9.7 km/h 21.9 km/h 55% 0.0 mm 298 W/m2
17:32 19.0 °C 10.1 °C 1024.3 hPa ESE 11.1 km/h 21.9 km/h 56% 0.0 mm 286 W/m2
17:37 18.6 °C 10.2 °C 1024.3 hPa ESE 7.2 km/h 20.9 km/h 58% 0.0 mm 276 W/m2
17:42 18.4 °C 10.0 °C 1024.3 hPa ESE 8.7 km/h 23.3 km/h 58% 0.0 mm 267 W/m2
17:47 18.7 °C 10.3 °C 1024.3 hPa ESE 7.2 km/h 23.3 km/h 58% 0.0 mm 250 W/m2
17:52 18.5 °C 10.1 °C 1024.3 hPa ESE 7.2 km/h 18.3 km/h 58% 0.0 mm 241 W/m2
17:57 18.5 °C 10.3 °C 1024.3 hPa ESE 7.2 km/h 20.9 km/h 59% 0.0 mm 232 W/m2
18:02 18.5 °C 10.3 °C 1024.3 hPa ESE 13.4 km/h 20.9 km/h 59% 0.0 mm 220 W/m2
18:07 18.7 °C 10.6 °C 1024.3 hPa ESE 9.7 km/h 20.9 km/h 59% 0.0 mm 213 W/m2
18:12 18.7 °C 10.3 °C 1024.3 hPa ESE 8.7 km/h 20.9 km/h 58% 0.0 mm 210 W/m2
18:17 18.4 °C 10.0 °C 1024.3 hPa ESE 7.2 km/h 21.9 km/h 58% 0.0 mm 200 W/m2
18:22 18.7 °C 10.6 °C 1024.3 hPa SE 6.1 km/h 21.9 km/h 59% 0.0 mm 199 W/m2
18:27 18.6 °C 10.4 °C 1024.3 hPa SE 8.7 km/h 13.4 km/h 59% 0.0 mm 196 W/m2
18:32 18.0 °C 10.1 °C 1024.3 hPa ESE 11.1 km/h 17.2 km/h 60% 0.0 mm 101 W/m2
18:37 17.6 °C 10.2 °C 1024.3 hPa East 7.2 km/h 17.2 km/h 62% 0.0 mm 93 W/m2
18:42 17.3 °C 10.2 °C 1024.3 hPa ESE 6.1 km/h 17.2 km/h 63% 0.0 mm 86 W/m2
18:47 17.1 °C 10.0 °C 1024.6 hPa ESE 6.1 km/h 13.4 km/h 63% 0.0 mm 70 W/m2
18:52 16.9 °C 10.3 °C 1024.3 hPa ESE 5.0 km/h 13.4 km/h 65% 0.0 mm 71 W/m2
18:57 16.9 °C 10.3 °C 1024.6 hPa East 8.7 km/h 13.4 km/h 65% 0.0 mm 65 W/m2
19:02 16.7 °C 10.1 °C 1024.6 hPa East 5.0 km/h 13.4 km/h 65% 0.0 mm 51 W/m2
19:07 16.7 °C 10.1 °C 1024.6 hPa East 7.2 km/h 13.4 km/h 65% 0.0 mm 38 W/m2
19:12 16.6 °C 10.0 °C 1024.9 hPa ENE 8.7 km/h 13.4 km/h 65% 0.0 mm 39 W/m2
19:17 16.5 °C 9.9 °C 1024.6 hPa ENE 6.1 km/h 14.8 km/h 65% 0.0 mm 31 W/m2
19:22 16.4 °C 9.8 °C 1024.6 hPa East 7.2 km/h 15.8 km/h 65% 0.0 mm 23 W/m2
19:27 16.3 °C 9.7 °C 1024.9 hPa East 7.2 km/h 17.2 km/h 65% 0.0 mm 13 W/m2
19:32 16.2 °C 9.8 °C 1024.9 hPa East 5.0 km/h 17.2 km/h 66% 0.0 mm 9 W/m2
19:37 16.1 °C 9.8 °C 1024.9 hPa East 6.1 km/h 11.1 km/h 66% 0.0 mm 7 W/m2
19:42 16.0 °C 9.9 °C 1024.9 hPa East 7.2 km/h 14.8 km/h 67% 0.0 mm 5 W/m2
19:47 15.9 °C 10.2 °C 1024.9 hPa East 9.7 km/h 14.8 km/h 69% 0.0 mm 3 W/m2
19:52 15.8 °C 10.1 °C 1024.9 hPa ESE 5.0 km/h 14.8 km/h 69% 0.0 mm 0 W/m2
19:57 15.8 °C 10.1 °C 1024.9 hPa East 5.0 km/h 12.2 km/h 69% 0.0 mm 0 W/m2
20:02 15.8 °C 10.1 °C 1024.9 hPa East 9.7 km/h 12.2 km/h 69% 0.0 mm 0 W/m2
20:07 15.7 °C 10.3 °C 1024.9 hPa ESE 6.1 km/h 12.2 km/h 70% 0.0 mm 0 W/m2
20:12 15.7 °C 10.3 °C 1024.9 hPa East 2.6 km/h 12.2 km/h 70% 0.0 mm 0 W/m2
20:17 15.7 °C 10.3 °C 1024.9 hPa Calm   11.1 km/h 70% 0.0 mm 0 W/m2
20:22 15.6 °C 10.4 °C 1025.3 hPa SE 1.1 km/h 7.2 km/h 71% 0.0 mm 0 W/m2
20:27 15.6 °C 10.4 °C 1025.3 hPa East 1.1 km/h 5.0 km/h 71% 0.0 mm 0 W/m2
20:32 15.6 °C 10.4 °C 1025.3 hPa Calm   5.0 km/h 71% 0.0 mm 0 W/m2
20:37 15.5 °C 10.3 °C 1025.6 hPa Calm   3.5 km/h 71% 0.0 mm 0 W/m2
20:42 15.5 °C 10.5 °C 1025.6 hPa Calm   3.5 km/h 72% 0.0 mm 0 W/m2
20:47 15.4 °C 10.6 °C 1025.6 hPa ENE 2.6 km/h 6.1 km/h 73% 0.0 mm 0 W/m2
20:52 15.3 °C 10.5 °C 1025.3 hPa ENE 3.5 km/h 7.2 km/h 73% 0.0 mm 0 W/m2
20:57 15.2 °C 10.4 °C 1025.6 hPa ENE 2.6 km/h 8.7 km/h 73% 0.0 mm 0 W/m2
21:02 15.1 °C 10.3 °C 1025.6 hPa NE 1.1 km/h 8.7 km/h 73% 0.0 mm 0 W/m2
21:07 15.1 °C 10.3 °C 1026.0 hPa Calm   6.1 km/h 73% 0.0 mm 0 W/m2
21:12 15.1 °C 10.1 °C 1025.6 hPa ENE 2.6 km/h 7.2 km/h 72% 0.0 mm 0 W/m2
21:17 15.1 °C 10.3 °C 1026.0 hPa ENE 3.5 km/h 7.2 km/h 73% 0.0 mm 0 W/m2
21:22 15.0 °C 10.0 °C 1026.0 hPa ENE 1.1 km/h 7.2 km/h 72% 0.0 mm 0 W/m2
21:27 14.9 °C 10.3 °C 1026.0 hPa ENE 7.2 km/h 12.2 km/h 74% 0.0 mm 0 W/m2
21:32 14.8 °C 10.2 °C 1026.0 hPa ENE 3.5 km/h 12.2 km/h 74% 0.0 mm 0 W/m2
21:37 14.7 °C 10.1 °C 1026.0 hPa ENE 3.5 km/h 7.2 km/h 74% 0.0 mm 0 W/m2
21:42 14.6 °C 10.2 °C 1026.0 hPa ENE 5.0 km/h 8.7 km/h 75% 0.0 mm 0 W/m2
21:47 14.5 °C 9.9 °C 1026.0 hPa NE 2.6 km/h 9.7 km/h 74% 0.0 mm 0 W/m2
21:52 14.4 °C 9.8 °C 1026.0 hPa NE 2.6 km/h 9.7 km/h 74% 0.0 mm 0 W/m2
21:57 14.4 °C 9.8 °C 1026.0 hPa Calm   5.0 km/h 74% 0.0 mm 0 W/m2
22:02 14.4 °C 9.8 °C 1026.0 hPa Calm   5.0 km/h 74% 0.0 mm 0 W/m2
22:07 14.3 °C 9.7 °C 1026.3 hPa Calm   3.5 km/h 74% 0.0 mm 0 W/m2
22:12 14.4 °C 9.6 °C 1026.3 hPa Calm   3.5 km/h 73% 0.0 mm 0 W/m2
22:18 14.4 °C 9.4 °C 1026.0 hPa Calm   5.0 km/h 72% 0.0 mm 0 W/m2
22:23 14.5 °C 9.5 °C 1026.0 hPa Calm   9.7 km/h 72% 0.0 mm 0 W/m2
22:40 14.5 °C 9.3 °C 1026.0 hPa Calm   12.2 km/h 71% 0.0 mm 0 W/m2
22:45 14.4 °C 9.2 °C 1026.6 hPa Calm   12.2 km/h 71% 0.0 mm 0 W/m2
22:50 14.3 °C 9.3 °C 1026.0 hPa Calm   5.0 km/h 72% 0.0 mm 0 W/m2
22:55 14.2 °C 9.2 °C 1026.3 hPa Calm   5.0 km/h 72% 0.0 mm 0 W/m2
23:00 14.1 °C 9.1 °C 1026.3 hPa Calm   3.5 km/h 72% 0.0 mm 0 W/m2
23:06 14.1 °C 9.3 °C 1026.0 hPa Calm   3.5 km/h 73% 0.0 mm 0 W/m2
23:11 14.0 °C 9.2 °C 1026.3 hPa Calm   3.5 km/h 73% 0.0 mm 0 W/m2
23:16 14.0 °C 9.2 °C 1026.0 hPa Calm   2.6 km/h 73% 0.0 mm 0 W/m2
23:21 14.0 °C 9.2 °C 1026.0 hPa Calm   1.1 km/h 73% 0.0 mm 0 W/m2
23:26 14.0 °C 9.4 °C 1026.3 hPa Calm   1.1 km/h 74% 0.0 mm 0 W/m2
23:31 14.0 °C 9.4 °C 1026.3 hPa Calm   1.1 km/h 74% 0.0 mm 0 W/m2
23:36 14.0 °C 9.4 °C 1026.0 hPa Calm   1.1 km/h 74% 0.0 mm 0 W/m2
23:41 13.9 °C 9.6 °C 1026.0 hPa Calm     75% 0.0 mm 0 W/m2
23:46 13.9 °C 9.6 °C 1026.0 hPa Calm     75% 0.0 mm 0 W/m2
23:51 13.8 °C 9.4 °C 1026.0 hPa Calm     75% 0.0 mm 0 W/m2
23:56 13.8 °C 9.4 °C 1026.0 hPa Calm     75% 0.0 mm 0 W/m2
Northern Hawkes Bay. New Zealand Historic Data
Compliments of Weather Underground - 2.25 mb